createdAt,value
2022-09-07T00:01:10.524Z,18.00
2022-09-07T00:03:41.159Z,18.00
2022-09-07T00:06:15.029Z,18.00
2022-09-07T00:08:46.941Z,17.90
2022-09-07T00:11:20.532Z,18.00
2022-09-07T00:13:53.206Z,18.00
2022-09-07T00:16:26.930Z,17.90
2022-09-07T00:18:59.252Z,17.90
2022-09-07T00:21:31.001Z,17.80
2022-09-07T00:24:03.105Z,17.80
2022-09-07T00:26:35.168Z,17.80
2022-09-07T00:29:07.992Z,17.80
2022-09-07T00:31:38.970Z,17.80
2022-09-07T00:34:09.665Z,17.80
2022-09-07T00:36:40.071Z,17.80
2022-09-07T00:39:12.111Z,17.80
2022-09-07T00:41:42.779Z,17.70
2022-09-07T00:45:09.913Z,17.80
2022-09-07T00:47:53.909Z,17.80
2022-09-07T00:50:30.542Z,17.80
2022-09-07T00:53:07.841Z,17.80
2022-09-07T00:55:43.700Z,17.80
2022-09-07T00:58:15.741Z,17.80
2022-09-07T01:00:49.619Z,17.80
2022-09-07T01:03:25.206Z,17.80
2022-09-07T01:06:03.545Z,17.80
2022-09-07T01:08:35.847Z,17.70
2022-09-07T01:11:08.943Z,17.70
2022-09-07T01:13:40.584Z,17.70
2022-09-07T01:16:27.247Z,17.70
2022-09-07T01:19:30.897Z,17.60
2022-09-07T01:22:29.676Z,17.60
2022-09-07T01:25:11.360Z,17.60
2022-09-07T01:28:10.647Z,17.50
2022-09-07T01:30:47.475Z,17.60
2022-09-07T01:33:43.317Z,17.60
2022-09-07T01:36:34.610Z,17.70
2022-09-07T01:39:08.123Z,17.70
2022-09-07T01:41:48.944Z,17.60
2022-09-07T01:44:25.958Z,17.60
2022-09-07T01:47:05.950Z,17.50
2022-09-07T01:49:43.586Z,17.50
2022-09-07T01:52:22.718Z,17.50
2022-09-07T01:55:00.274Z,17.50
2022-09-07T01:57:40.196Z,17.40
2022-09-07T02:00:19.553Z,17.40
2022-09-07T02:02:57.344Z,17.40
2022-09-07T02:05:34.515Z,17.40
2022-09-07T02:08:16.859Z,17.40
2022-09-07T02:10:55.315Z,17.30
2022-09-07T02:13:35.107Z,17.30
2022-09-07T02:16:12.567Z,17.20
2022-09-07T02:18:49.130Z,17.30
2022-09-07T02:21:28.102Z,17.20
2022-09-07T02:24:04.257Z,17.20
2022-09-07T02:26:37.654Z,17.20
2022-09-07T02:29:08.935Z,17.10
2022-09-07T02:31:40.979Z,17.10
2022-09-07T02:34:11.626Z,17.10
2022-09-07T02:36:49.803Z,17.10
2022-09-07T02:39:20.428Z,17.10
2022-09-07T02:41:50.905Z,17.10
2022-09-07T02:44:26.992Z,17.10
2022-09-07T02:47:20.015Z,17.20
2022-09-07T02:50:24.818Z,17.00
2022-09-07T02:53:25.493Z,17.00
2022-09-07T02:56:12.325Z,17.00
2022-09-07T02:58:55.685Z,16.90
2022-09-07T03:01:41.147Z,16.90
2022-09-07T03:04:24.842Z,16.90
2022-09-07T03:07:02.748Z,16.90
2022-09-07T03:09:43.026Z,16.90
2022-09-07T03:12:14.587Z,16.80
2022-09-07T03:14:47.043Z,16.80
2022-09-07T03:17:17.840Z,16.80
2022-09-07T03:19:49.707Z,16.90
2022-09-07T03:22:20.031Z,16.90
2022-09-07T03:24:50.422Z,16.90
2022-09-07T03:27:20.887Z,16.90
2022-09-07T03:29:51.388Z,16.90
2022-09-07T03:32:21.995Z,16.90
2022-09-07T03:34:54.775Z,16.90
2022-09-07T03:37:25.550Z,16.90
2022-09-07T03:39:56.404Z,16.90
2022-09-07T03:42:27.247Z,16.80
2022-09-07T03:44:57.728Z,16.80
2022-09-07T03:47:28.460Z,16.80
2022-09-07T03:50:00.286Z,16.80
2022-09-07T03:52:30.812Z,16.80
2022-09-07T03:55:01.169Z,16.80
2022-09-07T03:57:31.497Z,16.90
2022-09-07T04:00:02.476Z,16.90
2022-09-07T04:02:42.935Z,16.90
2022-09-07T04:05:14.834Z,16.90
2022-09-07T04:07:45.248Z,16.90
2022-09-07T04:10:15.859Z,16.90
2022-09-07T04:12:46.510Z,17.00
2022-09-07T04:15:17.134Z,17.00
2022-09-07T04:17:48.096Z,17.00
2022-09-07T04:20:20.045Z,16.90
2022-09-07T04:22:54.209Z,16.90
2022-09-07T04:25:24.851Z,16.90
2022-09-07T04:27:56.539Z,16.90
2022-09-07T04:30:26.777Z,16.90
2022-09-07T04:32:57.384Z,16.90
2022-09-07T04:35:29.122Z,16.90
2022-09-07T04:37:59.574Z,16.90
2022-09-07T04:40:29.947Z,16.90
2022-09-07T04:43:00.805Z,16.90
2022-09-07T04:45:31.312Z,16.90
2022-09-07T04:48:01.723Z,16.90
2022-09-07T04:50:33.826Z,17.00
2022-09-07T04:53:04.206Z,17.00
2022-09-07T04:55:35.441Z,17.00
2022-09-07T04:58:05.971Z,17.10
2022-09-07T05:00:36.508Z,17.10
2022-09-07T05:03:07.109Z,17.10
2022-09-07T05:05:41.160Z,17.20
2022-09-07T05:08:11.804Z,17.20
2022-09-07T05:10:51.060Z,17.20
2022-09-07T05:13:21.742Z,17.20
2022-09-07T05:15:52.088Z,17.20
2022-09-07T05:18:22.425Z,17.20
2022-09-07T05:20:54.455Z,17.20
2022-09-07T05:23:25.090Z,17.20
2022-09-07T05:25:55.418Z,17.20
2022-09-07T05:28:25.766Z,17.20
2022-09-07T05:36:42.234Z,17.20
2022-09-07T05:39:13.013Z,17.20
2022-09-07T05:41:43.542Z,17.30
2022-09-07T05:47:04.625Z,17.30
2022-09-07T05:49:34.987Z,17.40
2022-09-07T05:52:08.074Z,17.50
2022-09-07T05:54:38.416Z,17.50
2022-09-07T05:57:11.489Z,17.60
2022-09-07T05:59:41.925Z,17.70
2022-09-07T06:02:16.666Z,17.70
2022-09-07T06:04:47.630Z,17.80
2022-09-07T06:07:23.139Z,17.90
2022-09-07T06:12:49.524Z,17.90
2022-09-07T06:15:20.321Z,18.00
2022-09-07T06:17:50.872Z,18.00
2022-09-07T06:20:21.442Z,18.00
2022-09-07T06:22:53.101Z,18.00
2022-09-07T06:25:23.460Z,18.00
2022-09-07T06:27:54.263Z,18.10
2022-09-07T06:30:25.342Z,18.10
2022-09-07T06:32:55.810Z,18.10
2022-09-07T06:35:26.123Z,18.20
2022-09-07T06:37:58.119Z,18.30
2022-09-07T06:40:28.519Z,18.40
2022-09-07T06:42:58.882Z,18.60
2022-09-07T06:45:29.232Z,18.70
2022-09-07T06:47:59.633Z,18.90
2022-09-07T06:50:29.966Z,19.10
2022-09-07T06:55:52.121Z,19.30
2022-09-07T06:58:24.666Z,19.30
2022-09-07T07:00:56.668Z,19.50
2022-09-07T07:03:26.849Z,19.50
2022-09-07T07:05:58.724Z,19.60
2022-09-07T07:08:30.214Z,19.70
2022-09-07T07:11:05.582Z,19.70
2022-09-07T07:13:35.256Z,19.80
2022-09-07T07:16:06.704Z,19.80
2022-09-07T07:18:37.615Z,19.80
2022-09-07T07:21:09.647Z,19.80
2022-09-07T07:23:41.880Z,19.70
2022-09-07T07:26:18.476Z,19.70
2022-09-07T07:29:04.755Z,19.70
2022-09-07T07:31:35.047Z,19.80
2022-09-07T07:34:04.917Z,19.80
2022-09-07T07:36:35.574Z,19.80
2022-09-07T07:39:07.613Z,19.90
2022-09-07T07:41:54.430Z,19.90
2022-09-07T07:44:26.422Z,19.90
2022-09-07T07:46:56.858Z,19.80
2022-09-07T07:49:27.200Z,19.80
2022-09-07T07:54:49.612Z,19.80
2022-09-07T07:57:19.827Z,19.90
2022-09-07T07:59:49.884Z,19.90
2022-09-07T08:02:20.573Z,19.90
2022-09-07T08:04:50.562Z,20.00
2022-09-07T08:07:20.487Z,20.20
2022-09-07T08:09:52.344Z,20.20
2022-09-07T08:12:26.599Z,20.40
2022-09-07T08:14:58.749Z,20.50
2022-09-07T08:17:31.575Z,20.70
2022-09-07T08:20:01.446Z,20.80
2022-09-07T08:22:34.737Z,20.90
2022-09-07T08:25:07.121Z,21.20
2022-09-07T08:27:37.268Z,21.40
2022-09-07T08:30:08.323Z,21.50
2022-09-07T08:32:37.984Z,21.50
2022-09-07T08:35:08.289Z,21.60
2022-09-07T08:37:37.841Z,21.70
2022-09-07T08:40:11.616Z,21.70
2022-09-07T08:43:01.034Z,21.80
2022-09-07T08:45:36.906Z,21.70
2022-09-07T08:48:07.915Z,21.80
2022-09-07T08:50:48.394Z,21.70
2022-09-07T08:53:20.964Z,21.70
2022-09-07T08:55:56.831Z,21.90
2022-09-07T08:58:51.315Z,21.90
2022-09-07T09:01:31.050Z,22.00
2022-09-07T09:04:20.455Z,22.00
2022-09-07T09:07:10.039Z,22.00
2022-09-07T09:10:18.569Z,22.00
2022-09-07T09:13:03.789Z,22.20
2022-09-07T09:15:54.080Z,22.30
2022-09-07T09:18:50.493Z,22.40
2022-09-07T09:21:21.947Z,22.60
2022-09-07T09:24:00.500Z,22.70
2022-09-07T09:26:33.332Z,22.80
2022-09-07T09:29:15.500Z,22.90
2022-09-07T09:31:44.990Z,22.90
2022-09-07T09:34:17.678Z,23.00
2022-09-07T09:36:49.728Z,23.10
2022-09-07T09:39:32.172Z,23.20
2022-09-07T09:42:16.403Z,23.40
2022-09-07T09:44:47.831Z,23.50
2022-09-07T09:47:33.657Z,23.60
2022-09-07T09:52:28.854Z,23.80
2022-09-07T09:53:07.826Z,23.80
2022-09-07T09:55:39.498Z,24.00
2022-09-07T10:01:33.593Z,24.20
2022-09-07T10:04:27.521Z,24.40
2022-09-07T10:07:01.159Z,24.60
2022-09-07T10:09:38.147Z,24.80
2022-09-07T10:12:21.588Z,25.00
2022-09-07T10:14:51.499Z,25.00
2022-09-07T10:17:30.625Z,25.10
2022-09-07T10:20:03.644Z,25.40
2022-09-07T10:22:39.231Z,25.50
2022-09-07T10:25:32.987Z,25.70
2022-09-07T10:28:19.017Z,25.90
2022-09-07T10:31:15.233Z,25.90
2022-09-07T10:36:55.899Z,26.30
2022-09-07T10:39:32.633Z,26.60
2022-09-07T10:42:26.101Z,26.60
2022-09-07T10:45:15.496Z,26.60
2022-09-07T10:48:00.879Z,26.50
2022-09-07T10:50:38.119Z,26.40
2022-09-07T10:53:42.477Z,26.20
2022-09-07T10:56:16.487Z,25.90
2022-09-07T10:59:06.660Z,25.60
2022-09-07T11:01:54.337Z,25.60
2022-09-07T11:04:46.830Z,25.50
2022-09-07T11:07:41.759Z,25.50
2022-09-07T11:10:26.448Z,25.60
2022-09-07T11:13:02.093Z,25.70
2022-09-07T11:15:40.911Z,25.80
2022-09-07T11:18:19.055Z,25.90
2022-09-07T11:20:55.638Z,25.90
2022-09-07T11:23:32.099Z,25.90
2022-09-07T11:26:13.616Z,25.70
2022-09-07T11:29:29.156Z,25.80
2022-09-07T11:31:46.261Z,25.80
2022-09-07T11:34:24.112Z,26.00
2022-09-07T11:37:01.976Z,26.30
2022-09-07T11:39:36.684Z,26.40
2022-09-07T11:45:15.161Z,26.10
2022-09-07T11:47:53.292Z,25.80
2022-09-07T11:50:25.463Z,26.00
2022-09-07T11:53:00.148Z,26.50
2022-09-07T11:55:35.028Z,26.80
2022-09-07T11:59:10.328Z,27.30
2022-09-07T12:01:55.464Z,27.60
2022-09-07T12:04:46.686Z,27.90
2022-09-07T12:07:52.260Z,27.80
2022-09-07T12:11:14.414Z,27.40
2022-09-07T12:14:11.251Z,26.80
2022-09-07T12:17:12.610Z,26.60
2022-09-07T12:19:43.364Z,26.60
2022-09-07T12:22:22.807Z,26.50
2022-09-07T12:24:53.712Z,26.50
2022-09-07T12:27:41.900Z,26.60
2022-09-07T12:30:58.665Z,26.80
2022-09-07T12:33:35.473Z,27.30
2022-09-07T12:36:51.222Z,27.50
2022-09-07T12:39:28.427Z,27.60
2022-09-07T12:42:32.770Z,27.50
2022-09-07T12:45:49.145Z,27.40
2022-09-07T12:48:44.935Z,27.20
2022-09-07T12:54:28.844Z,26.80
2022-09-07T13:00:07.182Z,26.60
2022-09-07T13:09:33.759Z,26.90
2022-09-07T13:15:35.507Z,27.30
2022-09-07T13:18:04.942Z,27.50
2022-09-07T13:20:39.716Z,27.70
2022-09-07T13:23:32.096Z,27.80
2022-09-07T13:26:03.326Z,27.70
2022-09-07T13:28:58.764Z,27.70
2022-09-07T13:31:57.095Z,27.70
2022-09-07T13:34:48.510Z,27.40
2022-09-07T13:37:23.012Z,27.40
2022-09-07T13:39:57.991Z,27.40
2022-09-07T13:42:32.760Z,27.40
2022-09-07T13:45:04.997Z,27.30
2022-09-07T13:47:48.986Z,27.30
2022-09-07T13:50:36.844Z,27.40
2022-09-07T13:53:38.177Z,27.30
2022-09-07T13:56:27.469Z,27.20
2022-09-07T13:58:57.753Z,27.50
2022-09-07T14:01:31.205Z,27.30
2022-09-07T14:04:07.330Z,27.30
2022-09-07T14:06:39.181Z,27.30
2022-09-07T14:09:16.460Z,27.20
2022-09-07T14:11:50.805Z,27.20
2022-09-07T14:14:23.239Z,27.20
2022-09-07T14:17:03.598Z,27.30
2022-09-07T14:19:40.162Z,27.20
2022-09-07T14:22:15.793Z,27.20
2022-09-07T14:24:51.148Z,27.40
2022-09-07T14:27:33.181Z,27.40
2022-09-07T14:30:23.416Z,27.40
2022-09-07T14:32:56.157Z,27.30
2022-09-07T14:35:29.661Z,27.10
2022-09-07T14:38:15.088Z,27.10
2022-09-07T14:40:45.136Z,27.10
2022-09-07T14:46:17.518Z,27.00
2022-09-07T14:48:47.163Z,26.70
2022-09-07T14:51:32.724Z,26.70
2022-09-07T14:54:06.508Z,26.70
2022-09-07T14:56:36.391Z,26.60
2022-09-07T14:59:28.205Z,26.50
2022-09-07T15:02:27.308Z,26.50
2022-09-07T15:05:17.980Z,26.50
2022-09-07T15:07:47.945Z,26.70
2022-09-07T15:10:26.450Z,26.50
2022-09-07T15:12:55.946Z,26.70
2022-09-07T15:15:26.672Z,26.90
2022-09-07T15:18:02.869Z,26.70
2022-09-07T15:20:40.867Z,26.90
2022-09-07T15:23:12.543Z,27.00
2022-09-07T15:25:41.027Z,27.00
2022-09-07T15:29:08.195Z,26.90
2022-09-07T15:33:55.080Z,26.90
2022-09-07T15:36:22.779Z,26.80
2022-09-07T15:39:05.815Z,26.80
2022-09-07T15:41:34.850Z,26.90
2022-09-07T15:44:02.937Z,26.90
2022-09-07T15:46:30.977Z,26.80
2022-09-07T15:49:01.648Z,26.80
2022-09-07T15:54:20.714Z,26.90
2022-09-07T15:59:36.379Z,26.80
2022-09-07T16:03:04.499Z,26.80
2022-09-07T16:04:53.559Z,26.80
2022-09-07T16:07:22.576Z,26.70
2022-09-07T16:09:52.586Z,26.60
2022-09-07T16:15:12.674Z,26.50
2022-09-07T16:17:47.201Z,26.50
2022-09-07T16:20:17.448Z,26.40
2022-09-07T16:25:32.955Z,26.40
2022-09-07T16:28:00.731Z,26.30
2022-09-07T16:30:28.820Z,26.20
2022-09-07T16:32:56.605Z,26.20
2022-09-07T16:35:26.282Z,26.20
2022-09-07T16:40:42.687Z,26.20
2022-09-07T16:43:10.413Z,26.30
2022-09-07T16:48:25.941Z,26.30
2022-09-07T16:51:01.235Z,26.10
2022-09-07T16:53:31.099Z,26.10
2022-09-07T16:56:02.471Z,26.10
2022-09-07T16:58:38.509Z,26.10
2022-09-07T17:01:06.947Z,26.10
2022-09-07T17:03:35.513Z,26.20
2022-09-07T17:06:06.671Z,26.20
2022-09-07T17:08:35.058Z,26.10
2022-09-07T17:11:04.765Z,25.90
2022-09-07T17:13:33.411Z,25.70
2022-09-07T17:16:04.954Z,25.50
2022-09-07T17:21:22.898Z,25.10
2022-09-07T17:23:55.388Z,24.80
2022-09-07T17:26:27.148Z,24.70
2022-09-07T17:29:00.118Z,24.50
2022-09-07T17:34:17.915Z,24.40
2022-09-07T17:36:47.025Z,24.30
2022-09-07T17:39:17.572Z,24.20
2022-09-07T17:41:47.031Z,24.00
2022-09-07T17:44:14.788Z,23.90
2022-09-07T17:46:42.560Z,23.80
2022-09-07T17:49:13.954Z,23.80
2022-09-07T17:51:41.782Z,23.70
2022-09-07T17:54:14.135Z,23.70
2022-09-07T17:56:42.834Z,23.70
2022-09-07T18:01:59.430Z,23.50
2022-09-07T18:04:28.510Z,23.20
2022-09-07T18:06:56.714Z,23.20
2022-09-07T18:09:25.807Z,23.20
2022-09-07T18:11:53.840Z,23.30
2022-09-07T18:14:21.738Z,23.30
2022-09-07T18:16:51.421Z,23.20
2022-09-07T18:19:19.878Z,23.20
2022-09-07T18:21:48.677Z,23.20
2022-09-07T18:24:18.449Z,23.20
2022-09-07T18:26:51.504Z,23.10
2022-09-07T18:29:31.299Z,23.00
2022-09-07T18:32:02.487Z,22.90
2022-09-07T18:34:31.860Z,22.90
2022-09-07T18:36:59.937Z,22.80
2022-09-07T18:39:28.533Z,22.90
2022-09-07T18:41:58.020Z,22.90
2022-09-07T18:47:21.419Z,22.80
2022-09-07T18:49:51.321Z,22.50
2022-09-07T18:55:08.543Z,22.10
2022-09-07T18:57:37.699Z,22.00
2022-09-07T19:00:06.861Z,21.80
2022-09-07T19:02:35.583Z,21.80
2022-09-07T19:07:51.803Z,22.00
2022-09-07T19:10:19.565Z,22.00
2022-09-07T19:12:48.657Z,21.70
2022-09-07T19:15:16.726Z,21.70
2022-09-07T19:17:44.451Z,21.90
2022-09-07T19:20:12.348Z,21.90
2022-09-07T19:22:40.082Z,21.80
2022-09-07T19:25:08.364Z,21.60
2022-09-07T19:27:36.285Z,21.60
2022-09-07T19:30:06.012Z,21.70
2022-09-07T19:32:33.760Z,21.60
2022-09-07T19:35:01.536Z,21.30
2022-09-07T19:37:31.930Z,21.30
2022-09-07T19:39:59.779Z,21.10
2022-09-07T19:42:27.649Z,21.10
2022-09-07T19:44:55.484Z,21.10
2022-09-07T19:47:24.811Z,21.10
2022-09-07T19:49:52.794Z,21.10
2022-09-07T19:52:20.753Z,21.00
2022-09-07T19:54:48.567Z,20.90
2022-09-07T19:57:16.459Z,20.80
2022-09-07T19:59:45.577Z,20.70
2022-09-07T20:02:13.456Z,20.60
2022-09-07T20:04:42.671Z,20.40
2022-09-07T20:07:10.542Z,20.20
2022-09-07T20:09:38.429Z,20.10
2022-09-07T20:12:08.636Z,20.20
2022-09-07T20:14:36.789Z,20.20
2022-09-07T20:17:04.567Z,20.10
2022-09-07T20:19:32.328Z,20.10
2022-09-07T20:22:01.505Z,20.00
2022-09-07T20:24:29.343Z,20.10
2022-09-07T20:26:57.212Z,20.30
2022-09-07T20:29:29.083Z,20.20
2022-09-07T20:31:57.917Z,20.20
2022-09-07T20:34:25.963Z,20.20
2022-09-07T20:36:54.184Z,20.00
2022-09-07T20:39:23.740Z,20.10
2022-09-07T20:41:51.636Z,20.00
2022-09-07T20:44:19.543Z,20.00
2022-09-07T20:46:47.390Z,20.00
2022-09-07T20:49:15.329Z,19.90
2022-09-07T20:51:43.116Z,19.70
2022-09-07T20:54:11.222Z,19.60
2022-09-07T20:56:40.295Z,19.60
2022-09-07T20:59:08.038Z,19.70
2022-09-07T21:01:36.619Z,19.60
2022-09-07T21:04:06.075Z,19.60
2022-09-07T21:06:34.585Z,19.60
2022-09-07T21:09:02.521Z,19.60
2022-09-07T21:11:32.081Z,19.60
2022-09-07T21:14:02.726Z,19.40
2022-09-07T21:16:31.127Z,19.40
2022-09-07T21:19:00.391Z,19.50
2022-09-07T21:21:29.438Z,19.40
2022-09-07T21:23:57.915Z,19.50
2022-09-07T21:26:25.975Z,19.70
2022-09-07T21:28:57.528Z,19.60
2022-09-07T21:31:27.408Z,19.60
2022-09-07T21:33:56.748Z,19.50
2022-09-07T21:36:25.247Z,19.40
2022-09-07T21:38:54.259Z,19.50
2022-09-07T21:41:25.178Z,19.30
2022-09-07T21:43:56.254Z,19.10
2022-09-07T21:46:26.464Z,19.00
2022-09-07T21:48:56.058Z,18.90
2022-09-07T21:51:25.086Z,18.90
2022-09-07T21:53:54.591Z,18.60
2022-09-07T21:56:22.564Z,18.60
2022-09-07T21:58:54.982Z,18.60
2022-09-07T22:01:24.117Z,18.70
2022-09-07T22:03:57.056Z,18.70
2022-09-07T22:06:27.235Z,18.70
2022-09-07T22:08:55.722Z,18.70
2022-09-07T22:11:25.304Z,18.60
2022-09-07T22:13:55.902Z,18.60
2022-09-07T22:16:24.476Z,18.70
2022-09-07T22:18:52.426Z,18.70
2022-09-07T22:21:24.057Z,18.60
2022-09-07T22:23:56.837Z,18.60
2022-09-07T22:26:27.166Z,18.50
2022-09-07T22:28:55.688Z,18.30
2022-09-07T22:31:25.344Z,18.50
2022-09-07T22:33:55.046Z,18.60
2022-09-07T22:36:25.961Z,18.50
2022-09-07T22:38:55.825Z,18.40
2022-09-07T22:41:25.524Z,18.30
2022-09-07T22:43:53.323Z,18.20
2022-09-07T22:46:24.081Z,18.30
2022-09-07T22:48:51.885Z,18.50
2022-09-07T22:51:19.818Z,18.50
2022-09-07T22:53:48.902Z,18.60
2022-09-07T22:56:19.001Z,18.70
2022-09-07T22:58:47.843Z,18.60
2022-09-07T23:01:16.477Z,18.50
2022-09-07T23:03:45.212Z,18.50
2022-09-07T23:06:21.448Z,18.40
2022-09-07T23:08:50.822Z,18.20
2022-09-07T23:11:21.942Z,18.00
2022-09-07T23:13:51.966Z,17.90
2022-09-07T23:16:20.568Z,18.00
2022-09-07T23:18:49.258Z,18.00
2022-09-07T23:21:17.450Z,18.00
2022-09-07T23:23:51.378Z,18.10
2022-09-07T23:26:19.516Z,18.10
2022-09-07T23:28:51.219Z,18.10
2022-09-07T23:31:18.993Z,18.10
2022-09-07T23:33:46.817Z,18.10
2022-09-07T23:36:14.695Z,18.00
2022-09-07T23:38:42.448Z,18.00
2022-09-07T23:41:13.836Z,18.00
2022-09-07T23:43:42.070Z,18.20
2022-09-07T23:46:11.114Z,18.20
2022-09-07T23:48:38.998Z,18.20
2022-09-07T23:51:07.052Z,18.10
2022-09-07T23:53:35.067Z,18.10
2022-09-07T23:56:03.222Z,18.00
2022-09-07T23:58:32.352Z,17.80
